createdAt,value
2023-04-20T00:00:05.644Z,659.00
2023-04-20T00:01:05.629Z,660.00
2023-04-20T00:02:05.691Z,661.00
2023-04-20T00:03:05.802Z,658.00
2023-04-20T00:04:05.803Z,658.00
2023-04-20T00:05:05.709Z,660.00
2023-04-20T00:06:05.584Z,656.00
2023-04-20T00:07:05.570Z,656.00
2023-04-20T00:08:05.555Z,656.00
2023-04-20T00:09:05.546Z,657.00
2023-04-20T00:10:05.573Z,656.00
2023-04-20T00:11:05.534Z,658.00
2023-04-20T00:12:05.520Z,657.00
2023-04-20T00:13:05.509Z,657.00
2023-04-20T00:14:05.510Z,656.00
2023-04-20T00:15:05.477Z,654.00
2023-04-20T00:16:05.644Z,655.00
2023-04-20T00:17:05.490Z,656.00
2023-04-20T00:18:05.496Z,657.00
2023-04-20T00:19:05.444Z,655.00
2023-04-20T00:20:05.442Z,651.00
2023-04-20T00:21:05.439Z,649.00
2023-04-20T00:22:05.561Z,649.00
2023-04-20T00:23:05.396Z,649.00
2023-04-20T00:24:05.406Z,650.00
2023-04-20T00:25:05.379Z,647.00
2023-04-20T00:26:05.373Z,648.00
2023-04-20T00:27:05.362Z,645.00
2023-04-20T00:28:05.483Z,648.00
2023-04-20T00:29:05.331Z,648.00
2023-04-20T00:30:05.334Z,648.00
2023-04-20T00:31:05.382Z,650.00
2023-04-20T00:32:13.419Z,651.00
2023-04-20T00:33:05.343Z,650.00
2023-04-20T00:34:05.435Z,651.00
2023-04-20T00:35:05.278Z,652.00
2023-04-20T00:36:05.265Z,651.00
2023-04-20T00:37:05.272Z,652.00
2023-04-20T00:38:05.246Z,649.00
2023-04-20T00:39:05.230Z,650.00
2023-04-20T00:40:05.664Z,646.00
2023-04-20T00:41:05.262Z,642.00
2023-04-20T00:42:05.252Z,642.00
2023-04-20T00:43:05.188Z,643.00
2023-04-20T00:44:05.182Z,640.00
2023-04-20T00:45:05.162Z,638.00
2023-04-20T00:46:05.476Z,638.00
2023-04-20T00:47:05.150Z,637.00
2023-04-20T00:48:05.200Z,638.00
2023-04-20T00:49:05.127Z,640.00
2023-04-20T00:50:05.118Z,637.00
2023-04-20T00:51:05.123Z,636.00
2023-04-20T00:52:05.246Z,635.00
2023-04-20T00:53:05.081Z,634.00
2023-04-20T00:54:05.078Z,634.00
2023-04-20T00:55:05.059Z,634.00
2023-04-20T00:56:05.056Z,634.00
2023-04-20T00:57:05.048Z,634.00
2023-04-20T00:58:05.195Z,632.00
2023-04-20T00:59:05.023Z,634.00
2023-04-20T01:00:05.014Z,635.00
2023-04-20T01:01:05.007Z,635.00
2023-04-20T01:02:05.161Z,635.00
2023-04-20T01:03:05.131Z,633.00
2023-04-20T01:04:05.253Z,633.00
2023-04-20T01:05:04.967Z,634.00
2023-04-20T01:06:04.949Z,636.00
2023-04-20T01:07:04.942Z,639.00
2023-04-20T01:08:04.934Z,636.00
2023-04-20T01:09:04.919Z,636.00
2023-04-20T01:10:04.953Z,632.00
2023-04-20T01:11:04.899Z,632.00
2023-04-20T01:12:04.886Z,632.00
2023-04-20T01:13:04.881Z,631.00
2023-04-20T01:14:04.862Z,631.00
2023-04-20T01:15:04.851Z,628.00
2023-04-20T01:16:05.075Z,630.00
2023-04-20T01:17:04.845Z,631.00
2023-04-20T01:18:04.857Z,629.00
2023-04-20T01:19:04.809Z,630.00
2023-04-20T01:20:04.824Z,629.00
2023-04-20T01:21:04.797Z,630.00
2023-04-20T01:22:04.925Z,629.00
2023-04-20T01:23:04.776Z,630.00
2023-04-20T01:24:04.775Z,630.00
2023-04-20T01:25:04.761Z,629.00
2023-04-20T01:26:04.749Z,628.00
2023-04-20T01:27:04.729Z,629.00
2023-04-20T01:28:04.865Z,627.00
2023-04-20T01:29:04.722Z,626.00
2023-04-20T01:30:04.704Z,626.00
2023-04-20T01:31:04.727Z,624.00
2023-04-20T01:32:11.949Z,623.00
2023-04-20T01:33:04.723Z,623.00
2023-04-20T01:34:04.788Z,623.00
2023-04-20T01:35:04.651Z,622.00
2023-04-20T01:36:04.640Z,622.00
2023-04-20T01:37:04.623Z,623.00
2023-04-20T01:38:04.628Z,625.00
2023-04-20T01:39:04.599Z,625.00
2023-04-20T01:40:04.622Z,624.00
2023-04-20T01:41:04.649Z,622.00
2023-04-20T01:42:04.586Z,622.00
2023-04-20T01:43:04.566Z,621.00
2023-04-20T01:44:04.557Z,622.00
2023-04-20T01:45:04.620Z,622.00
2023-04-20T01:46:04.661Z,622.00
2023-04-20T01:47:04.649Z,624.00
2023-04-20T01:48:04.553Z,621.00
2023-04-20T01:49:04.500Z,621.00
2023-04-20T01:50:04.503Z,620.00
2023-04-20T01:51:04.495Z,620.00
2023-04-20T01:52:04.569Z,620.00
2023-04-20T01:53:04.458Z,619.00
2023-04-20T01:54:04.468Z,619.00
2023-04-20T01:55:04.445Z,618.00
2023-04-20T01:56:04.438Z,617.00
2023-04-20T01:57:04.425Z,616.00
2023-04-20T01:58:04.538Z,616.00
2023-04-20T01:59:04.413Z,615.00
2023-04-20T02:00:04.406Z,614.00
2023-04-20T02:01:04.430Z,617.00
2023-04-20T02:02:04.437Z,617.00
2023-04-20T02:03:04.526Z,616.00
2023-04-20T02:04:04.527Z,615.00
2023-04-20T02:05:04.336Z,615.00
2023-04-20T02:06:04.336Z,616.00
2023-04-20T02:07:04.314Z,615.00
2023-04-20T02:08:04.340Z,615.00
2023-04-20T02:09:04.307Z,617.00
2023-04-20T02:10:04.314Z,618.00
2023-04-20T02:11:04.275Z,619.00
2023-04-20T02:12:04.273Z,618.00
2023-04-20T02:13:04.260Z,618.00
2023-04-20T02:14:04.250Z,619.00
2023-04-20T02:15:04.250Z,619.00
2023-04-20T02:16:04.356Z,617.00
2023-04-20T02:17:04.247Z,615.00
2023-04-20T02:18:04.230Z,614.00
2023-04-20T02:19:04.203Z,615.00
2023-04-20T02:20:04.184Z,615.00
2023-04-20T02:21:04.167Z,617.00
2023-04-20T02:22:04.313Z,617.00
2023-04-20T02:23:04.148Z,617.00
2023-04-20T02:24:04.149Z,615.00
2023-04-20T02:25:04.133Z,614.00
2023-04-20T02:26:04.115Z,613.00
2023-04-20T02:27:04.119Z,612.00
2023-04-20T02:28:04.228Z,611.00
2023-04-20T02:29:04.083Z,611.00
2023-04-20T02:30:04.118Z,609.00
2023-04-20T02:31:04.183Z,609.00
2023-04-20T02:32:11.462Z,609.00
2023-04-20T02:33:04.097Z,610.00
2023-04-20T02:34:04.187Z,613.00
2023-04-20T02:35:04.022Z,615.00
2023-04-20T02:36:04.023Z,615.00
2023-04-20T02:37:04.012Z,614.00
2023-04-20T02:38:04.003Z,613.00
2023-04-20T02:39:03.983Z,611.00
2023-04-20T02:40:03.993Z,610.00
2023-04-20T02:41:03.956Z,610.00
2023-04-20T02:42:03.952Z,608.00
2023-04-20T02:43:03.948Z,608.00
2023-04-20T02:44:03.941Z,609.00
2023-04-20T02:45:03.920Z,610.00
2023-04-20T02:46:03.978Z,609.00
2023-04-20T02:47:03.896Z,608.00
2023-04-20T02:48:03.945Z,608.00
2023-04-20T02:49:03.881Z,607.00
2023-04-20T02:50:03.876Z,607.00
2023-04-20T02:51:03.854Z,606.00
2023-04-20T02:52:04.017Z,607.00
2023-04-20T02:53:03.850Z,608.00
2023-04-20T02:54:03.839Z,608.00
2023-04-20T02:55:03.825Z,608.00
2023-04-20T02:56:03.814Z,606.00
2023-04-20T02:57:03.794Z,606.00
2023-04-20T02:58:04.047Z,606.00
2023-04-20T02:59:03.783Z,607.00
2023-04-20T03:00:03.769Z,608.00
2023-04-20T03:01:03.778Z,606.00
2023-04-20T03:02:03.807Z,606.00
2023-04-20T03:03:03.855Z,604.00
2023-04-20T03:04:03.994Z,604.00
2023-04-20T03:05:03.750Z,605.00
2023-04-20T03:06:03.718Z,604.00
2023-04-20T03:07:03.706Z,606.00
2023-04-20T03:08:03.684Z,605.00
2023-04-20T03:09:03.697Z,607.00
2023-04-20T03:10:03.725Z,606.00
2023-04-20T03:11:03.642Z,604.00
2023-04-20T03:12:03.652Z,606.00
2023-04-20T03:13:03.638Z,607.00
2023-04-20T03:14:03.628Z,610.00
2023-04-20T03:15:03.620Z,609.00
2023-04-20T03:16:03.784Z,609.00
2023-04-20T03:17:03.594Z,607.00
2023-04-20T03:18:03.669Z,610.00
2023-04-20T03:19:03.572Z,611.00
2023-04-20T03:20:03.565Z,612.00
2023-04-20T03:21:03.549Z,612.00
2023-04-20T03:22:03.634Z,611.00
2023-04-20T03:23:03.558Z,610.00
2023-04-20T03:24:03.521Z,612.00
2023-04-20T03:25:03.506Z,611.00
2023-04-20T03:26:03.454Z,611.00
2023-04-20T03:27:03.427Z,610.00
2023-04-20T03:28:03.563Z,609.00
2023-04-20T03:29:03.461Z,608.00
2023-04-20T03:30:03.463Z,608.00
2023-04-20T03:31:03.438Z,608.00
2023-04-20T03:32:10.562Z,606.00
2023-04-20T03:33:03.410Z,606.00
2023-04-20T03:34:03.493Z,604.00
2023-04-20T03:35:03.364Z,603.00
2023-04-20T03:36:03.348Z,602.00
2023-04-20T03:37:03.390Z,603.00
2023-04-20T03:38:03.375Z,601.00
2023-04-20T03:39:03.316Z,602.00
2023-04-20T03:40:03.329Z,600.00
2023-04-20T03:41:03.285Z,601.00
2023-04-20T03:42:03.282Z,603.00
2023-04-20T03:43:03.258Z,604.00
2023-04-20T03:44:03.256Z,602.00
2023-04-20T03:45:03.242Z,605.00
2023-04-20T03:46:03.399Z,607.00
2023-04-20T03:47:03.219Z,608.00
2023-04-20T03:48:03.277Z,610.00
2023-04-20T03:49:03.198Z,610.00
2023-04-20T03:50:03.192Z,608.00
2023-04-20T03:51:03.181Z,609.00
2023-04-20T03:52:03.205Z,607.00
2023-04-20T03:53:03.168Z,605.00
2023-04-20T03:54:03.165Z,603.00
2023-04-20T03:55:03.154Z,603.00
2023-04-20T03:56:03.116Z,601.00
2023-04-20T03:57:03.137Z,601.00
2023-04-20T03:58:03.170Z,601.00
2023-04-20T03:59:03.108Z,602.00
2023-04-20T04:00:03.089Z,602.00
2023-04-20T04:01:03.080Z,600.00
2023-04-20T04:02:03.144Z,601.00
2023-04-20T04:03:03.205Z,601.00
2023-04-20T04:04:03.372Z,603.00
2023-04-20T04:05:03.125Z,602.00
2023-04-20T04:06:03.043Z,602.00
2023-04-20T04:07:03.015Z,601.00
2023-04-20T04:08:03.006Z,603.00
2023-04-20T04:09:02.997Z,604.00
2023-04-20T04:10:03.037Z,603.00
2023-04-20T04:11:03.004Z,603.00
2023-04-20T04:12:02.956Z,603.00
2023-04-20T04:13:02.958Z,603.00
2023-04-20T04:14:02.943Z,606.00
2023-04-20T04:15:02.943Z,607.00
2023-04-20T04:16:03.058Z,608.00
2023-04-20T04:17:03.005Z,608.00
2023-04-20T04:18:02.935Z,607.00
2023-04-20T04:19:02.889Z,608.00
2023-04-20T04:20:02.882Z,609.00
2023-04-20T04:21:02.868Z,610.00
2023-04-20T04:22:03.035Z,609.00
2023-04-20T04:23:02.851Z,608.00
2023-04-20T04:24:02.836Z,608.00
2023-04-20T04:25:02.838Z,603.00
2023-04-20T04:26:02.823Z,606.00
2023-04-20T04:27:02.809Z,604.00
2023-04-20T04:28:02.942Z,604.00
2023-04-20T04:29:02.790Z,606.00
2023-04-20T04:30:02.784Z,604.00
2023-04-20T04:31:02.831Z,603.00
2023-04-20T04:32:02.756Z,603.00
2023-04-20T04:33:02.802Z,603.00
2023-04-20T04:34:02.889Z,602.00
2023-04-20T04:35:02.722Z,603.00
2023-04-20T04:36:02.767Z,603.00
2023-04-20T04:37:02.720Z,604.00
2023-04-20T04:38:02.697Z,604.00
2023-04-20T04:39:02.687Z,604.00
2023-04-20T04:40:04.182Z,605.00
2023-04-20T04:41:02.670Z,605.00
2023-04-20T04:42:04.856Z,604.00
2023-04-20T04:43:02.655Z,602.00
2023-04-20T04:44:02.633Z,601.00
2023-04-20T04:45:02.627Z,600.00
2023-04-20T04:46:02.755Z,600.00
2023-04-20T04:47:02.624Z,605.00
2023-04-20T04:48:02.659Z,610.00
2023-04-20T04:49:02.588Z,611.00
2023-04-20T04:50:02.572Z,614.00
2023-04-20T04:51:02.571Z,616.00
2023-04-20T04:52:02.569Z,616.00
2023-04-20T04:53:02.562Z,614.00
2023-04-20T04:54:02.525Z,617.00
2023-04-20T04:55:02.569Z,622.00
2023-04-20T04:56:02.524Z,627.00
2023-04-20T04:57:02.500Z,629.00
2023-04-20T04:58:02.626Z,632.00
2023-04-20T04:59:02.482Z,634.00
2023-04-20T05:00:02.482Z,637.00
2023-04-20T05:01:02.466Z,641.00
2023-04-20T05:02:02.511Z,643.00
2023-04-20T05:03:02.610Z,643.00
2023-04-20T05:04:02.963Z,644.00
2023-04-20T05:05:02.426Z,646.00
2023-04-20T05:06:02.399Z,646.00
2023-04-20T05:07:02.402Z,647.00
2023-04-20T05:08:02.402Z,648.00
2023-04-20T05:09:02.376Z,645.00
2023-04-20T05:10:02.490Z,640.00
2023-04-20T05:11:02.358Z,638.00
2023-04-20T05:12:02.424Z,639.00
2023-04-20T05:13:02.331Z,638.00
2023-04-20T05:14:02.320Z,639.00
2023-04-20T05:15:02.309Z,644.00
2023-04-20T05:16:02.491Z,647.00
2023-04-20T05:17:02.320Z,651.00
2023-04-20T05:18:02.366Z,652.00
2023-04-20T05:19:02.272Z,654.00
2023-04-20T05:20:02.259Z,654.00
2023-04-20T05:21:02.268Z,652.00
2023-04-20T05:22:02.403Z,655.00
2023-04-20T05:23:02.244Z,653.00
2023-04-20T05:24:02.223Z,654.00
2023-04-20T05:25:02.366Z,657.00
2023-04-20T05:26:02.201Z,660.00
2023-04-20T05:27:02.192Z,661.00
2023-04-20T05:28:02.358Z,661.00
2023-04-20T05:29:02.160Z,659.00
2023-04-20T05:30:13.166Z,662.00
2023-04-20T05:31:02.146Z,665.00
2023-04-20T05:32:02.241Z,669.00
2023-04-20T05:33:02.160Z,675.00
2023-04-20T05:34:02.153Z,683.00
2023-04-20T05:35:02.111Z,687.00
2023-04-20T05:36:02.084Z,688.00
2023-04-20T05:37:02.088Z,689.00
2023-04-20T05:38:02.066Z,693.00
2023-04-20T05:39:02.069Z,698.00
2023-04-20T05:40:02.090Z,700.00
2023-04-20T05:41:02.043Z,703.00
2023-04-20T05:42:02.032Z,705.00
2023-04-20T05:43:02.014Z,708.00
2023-04-20T05:44:02.004Z,709.00
2023-04-20T05:45:02.000Z,710.00
2023-04-20T05:46:02.169Z,711.00
2023-04-20T05:47:01.998Z,714.00
2023-04-20T05:48:02.051Z,714.00
2023-04-20T05:49:01.959Z,713.00
2023-04-20T05:50:01.948Z,711.00
2023-04-20T05:51:01.937Z,714.00
2023-04-20T05:52:02.076Z,719.00
2023-04-20T05:53:01.934Z,721.00
2023-04-20T05:54:01.910Z,720.00
2023-04-20T05:55:01.896Z,724.00
2023-04-20T05:56:01.886Z,724.00
2023-04-20T05:57:01.876Z,725.00
2023-04-20T05:58:02.011Z,725.00
2023-04-20T05:59:01.853Z,724.00
2023-04-20T06:00:01.843Z,720.00
2023-04-20T06:01:01.831Z,722.00
2023-04-20T06:02:02.014Z,723.00
2023-04-20T06:03:02.132Z,726.00
2023-04-20T06:04:02.265Z,729.00
2023-04-20T06:05:01.851Z,725.00
2023-04-20T06:06:01.787Z,689.00
2023-04-20T06:07:01.775Z,673.00
2023-04-20T06:08:01.754Z,679.00
2023-04-20T06:09:01.792Z,692.00
2023-04-20T06:10:01.785Z,709.00
2023-04-20T06:11:01.730Z,719.00
2023-04-20T06:12:01.720Z,727.00
2023-04-20T06:13:01.718Z,731.00
2023-04-20T06:14:01.708Z,732.00
2023-04-20T06:15:01.686Z,732.00
2023-04-20T06:16:01.879Z,730.00
2023-04-20T06:17:01.670Z,727.00
2023-04-20T06:18:01.822Z,729.00
2023-04-20T06:19:01.653Z,731.00
2023-04-20T06:20:01.648Z,729.00
2023-04-20T06:21:01.633Z,730.00
2023-04-20T06:22:01.760Z,728.00
2023-04-20T06:23:01.608Z,728.00
2023-04-20T06:24:01.600Z,727.00
2023-04-20T06:25:01.582Z,725.00
2023-04-20T06:26:01.587Z,725.00
2023-04-20T06:27:01.563Z,725.00
2023-04-20T06:28:01.600Z,726.00
2023-04-20T06:29:01.561Z,726.00
2023-04-20T06:30:01.557Z,727.00
2023-04-20T06:31:01.582Z,728.00
2023-04-20T06:32:08.551Z,730.00
2023-04-20T06:33:01.616Z,733.00
2023-04-20T06:34:01.656Z,734.00
2023-04-20T06:35:01.494Z,737.00
2023-04-20T06:36:01.475Z,736.00
2023-04-20T06:37:01.481Z,736.00
2023-04-20T06:38:01.444Z,735.00
2023-04-20T06:39:01.441Z,734.00
2023-04-20T06:40:01.501Z,732.00
2023-04-20T06:41:01.417Z,732.00
2023-04-20T06:42:01.417Z,732.00
2023-04-20T06:43:01.400Z,733.00
2023-04-20T06:44:01.388Z,730.00
2023-04-20T06:45:01.798Z,729.00
2023-04-20T06:46:02.061Z,732.00
2023-04-20T06:47:01.495Z,731.00
2023-04-20T06:48:01.455Z,728.00
2023-04-20T06:49:01.358Z,724.00
2023-04-20T06:50:01.328Z,725.00
2023-04-20T06:51:01.328Z,723.00
2023-04-20T06:52:01.465Z,721.00
2023-04-20T06:53:01.286Z,719.00
2023-04-20T06:54:01.295Z,716.00
2023-04-20T06:55:01.282Z,714.00
2023-04-20T06:56:01.273Z,714.00
2023-04-20T06:57:01.287Z,715.00
2023-04-20T06:58:01.297Z,713.00
2023-04-20T06:59:01.237Z,713.00
2023-04-20T07:00:01.226Z,717.00
2023-04-20T07:01:01.215Z,721.00
2023-04-20T07:02:01.568Z,723.00
2023-04-20T07:03:01.250Z,720.00
2023-04-20T07:04:01.524Z,716.00
2023-04-20T07:05:01.323Z,715.00
2023-04-20T07:06:01.157Z,713.00
2023-04-20T07:07:01.160Z,709.00
2023-04-20T07:08:01.133Z,707.00
2023-04-20T07:09:01.164Z,704.00
2023-04-20T07:10:01.200Z,702.00
2023-04-20T07:11:01.105Z,699.00
2023-04-20T07:12:01.091Z,697.00
2023-04-20T07:13:01.080Z,698.00
2023-04-20T07:14:01.068Z,700.00
2023-04-20T07:15:01.074Z,700.00
2023-04-20T07:16:01.277Z,703.00
2023-04-20T07:17:01.047Z,705.00
2023-04-20T07:18:01.068Z,707.00
2023-04-20T07:19:01.040Z,710.00
2023-04-20T07:20:01.035Z,714.00
2023-04-20T07:21:00.995Z,716.00
2023-04-20T07:22:01.165Z,719.00
2023-04-20T07:23:00.977Z,721.00
2023-04-20T07:24:00.975Z,724.00
2023-04-20T07:25:00.974Z,725.00
2023-04-20T07:26:00.950Z,727.00
2023-04-20T07:27:00.943Z,727.00
2023-04-20T07:28:00.979Z,728.00
2023-04-20T07:29:00.925Z,728.00
2023-04-20T07:30:00.918Z,729.00
2023-04-20T07:31:00.895Z,729.00
2023-04-20T07:33:24.491Z,730.00
2023-04-20T07:34:25.328Z,730.00
2023-04-20T07:35:25.333Z,733.00
2023-04-20T07:36:25.304Z,733.00
2023-04-20T07:37:27.145Z,734.00
2023-04-20T07:38:25.318Z,733.00
2023-04-20T07:39:25.277Z,734.00
2023-04-20T07:40:25.322Z,735.00
2023-04-20T07:41:25.257Z,740.00
2023-04-20T07:42:25.239Z,741.00
2023-04-20T07:43:25.227Z,743.00
2023-04-20T07:44:25.345Z,745.00
2023-04-20T07:45:25.203Z,747.00
2023-04-20T07:46:25.343Z,748.00
2023-04-20T07:47:25.197Z,750.00
2023-04-20T07:48:25.182Z,750.00
2023-04-20T07:49:25.163Z,746.00
2023-04-20T07:50:25.325Z,746.00
2023-04-20T07:51:25.146Z,746.00
2023-04-20T07:52:25.139Z,744.00
2023-04-20T07:53:25.119Z,748.00
2023-04-20T07:54:25.111Z,747.00
2023-04-20T07:55:25.099Z,748.00
2023-04-20T07:56:25.303Z,749.00
2023-04-20T07:57:25.076Z,749.00
2023-04-20T07:58:25.067Z,747.00
2023-04-20T07:59:25.054Z,746.00
2023-04-20T08:00:25.089Z,747.00
2023-04-20T08:01:25.044Z,746.00
2023-04-20T08:02:25.358Z,746.00
2023-04-20T08:03:25.205Z,745.00
2023-04-20T08:04:25.198Z,744.00
2023-04-20T08:05:25.259Z,742.00
2023-04-20T08:06:24.983Z,742.00
2023-04-20T08:07:24.978Z,742.00
2023-04-20T08:08:25.129Z,741.00
2023-04-20T08:09:24.944Z,742.00
2023-04-20T08:10:24.985Z,745.00
2023-04-20T08:11:24.946Z,745.00
2023-04-20T08:12:24.929Z,745.00
2023-04-20T08:13:24.901Z,745.00
2023-04-20T08:14:25.203Z,741.00
2023-04-20T08:15:24.884Z,741.00
2023-04-20T08:16:24.900Z,742.00
2023-04-20T08:17:24.893Z,745.00
2023-04-20T08:18:24.860Z,745.00
2023-04-20T08:19:24.842Z,747.00
2023-04-20T08:20:24.981Z,749.00
2023-04-20T08:21:25.871Z,751.00
2023-04-20T08:22:24.814Z,750.00
2023-04-20T08:23:24.797Z,750.00
2023-04-20T08:24:24.801Z,754.00
2023-04-20T08:25:25.439Z,755.00
2023-04-20T08:26:24.907Z,751.00
2023-04-20T08:27:24.757Z,751.00
2023-04-20T08:29:24.740Z,750.00
2023-04-20T08:30:24.771Z,750.00
2023-04-20T08:31:24.731Z,752.00
2023-04-20T08:32:31.721Z,754.00
2023-04-20T08:33:24.694Z,754.00
2023-04-20T08:34:24.809Z,753.00
2023-04-20T08:35:24.674Z,756.00
2023-04-20T08:36:24.672Z,760.00
2023-04-20T08:37:24.646Z,759.00
2023-04-20T08:38:33.677Z,759.00
2023-04-20T08:39:24.646Z,756.00
2023-04-20T08:40:24.635Z,757.00
2023-04-20T08:41:24.600Z,757.00
2023-04-20T08:42:24.601Z,757.00
2023-04-20T08:43:24.591Z,756.00
2023-04-20T08:44:24.705Z,756.00
2023-04-20T08:45:24.567Z,757.00
2023-04-20T08:46:24.601Z,756.00
2023-04-20T08:47:24.565Z,756.00
2023-04-20T08:48:24.552Z,757.00
2023-04-20T08:49:24.519Z,756.00
2023-04-20T08:50:24.649Z,754.00
2023-04-20T08:51:24.526Z,754.00
2023-04-20T08:52:24.497Z,756.00
2023-04-20T08:53:24.482Z,755.00
2023-04-20T08:54:24.937Z,754.00
2023-04-20T08:55:24.458Z,756.00
2023-04-20T08:56:24.486Z,759.00
2023-04-20T08:57:24.448Z,764.00
2023-04-20T08:58:24.426Z,763.00
2023-04-20T08:59:24.409Z,764.00
2023-04-20T09:00:24.416Z,765.00
2023-04-20T09:01:34.378Z,767.00
2023-04-20T09:02:24.621Z,767.00
2023-04-20T09:03:24.595Z,767.00
2023-04-20T09:04:24.897Z,766.00
2023-04-20T09:05:24.439Z,767.00
2023-04-20T09:06:24.346Z,767.00
2023-04-20T09:07:24.331Z,769.00
2023-04-20T09:08:24.371Z,771.00
2023-04-20T09:09:24.301Z,768.00
2023-04-20T09:10:24.305Z,767.00
2023-04-20T09:11:24.280Z,767.00
2023-04-20T09:12:24.279Z,764.00
2023-04-20T09:13:24.270Z,764.00
2023-04-20T09:14:24.407Z,761.00
2023-04-20T09:15:24.252Z,758.00
2023-04-20T09:16:24.323Z,758.00
2023-04-20T09:17:24.275Z,755.00
2023-04-20T09:18:24.214Z,754.00
2023-04-20T09:19:24.247Z,754.00
2023-04-20T09:20:24.222Z,753.00
2023-04-20T09:21:24.178Z,752.00
2023-04-20T09:22:24.205Z,750.00
2023-04-20T09:23:24.165Z,751.00
2023-04-20T09:24:24.165Z,751.00
2023-04-20T09:25:24.173Z,748.00
2023-04-20T09:26:24.301Z,749.00
2023-04-20T09:27:24.117Z,748.00
2023-04-20T09:28:24.126Z,749.00
2023-04-20T09:29:24.120Z,749.00
2023-04-20T09:30:24.089Z,748.00
2023-04-20T09:31:24.129Z,746.00
2023-04-20T09:32:30.882Z,748.00
2023-04-20T09:33:24.058Z,745.00
2023-04-20T09:34:24.042Z,740.00
2023-04-20T09:35:24.050Z,737.00
2023-04-20T09:36:24.025Z,734.00
2023-04-20T09:37:24.023Z,732.00
2023-04-20T09:38:24.178Z,731.00
2023-04-20T09:39:23.991Z,729.00
2023-04-20T09:40:23.979Z,727.00
2023-04-20T09:41:23.971Z,727.00
2023-04-20T09:42:23.959Z,727.00
2023-04-20T09:43:23.956Z,725.00
2023-04-20T09:44:23.968Z,725.00
2023-04-20T09:45:23.920Z,727.00
2023-04-20T09:46:24.054Z,727.00
2023-04-20T09:47:23.925Z,728.00
2023-04-20T09:48:23.898Z,729.00
2023-04-20T09:49:23.878Z,729.00
2023-04-20T09:50:32.051Z,727.00
2023-04-20T09:51:23.855Z,727.00
2023-04-20T09:52:23.855Z,726.00
2023-04-20T09:53:23.840Z,727.00
2023-04-20T09:54:23.832Z,728.00
2023-04-20T09:55:23.834Z,728.00
2023-04-20T09:56:23.941Z,723.00
2023-04-20T09:57:23.794Z,724.00
2023-04-20T09:58:23.849Z,721.00
2023-04-20T09:59:23.764Z,720.00
2023-04-20T10:00:23.786Z,721.00
2023-04-20T10:01:23.785Z,720.00
2023-04-20T10:02:24.040Z,721.00
2023-04-20T10:03:23.849Z,720.00
2023-04-20T10:04:24.176Z,720.00
2023-04-20T10:05:23.706Z,720.00
2023-04-20T10:06:23.713Z,722.00
2023-04-20T10:07:23.691Z,722.00
2023-04-20T10:08:23.835Z,718.00
2023-04-20T10:09:23.687Z,715.00
2023-04-20T10:10:23.653Z,715.00
2023-04-20T10:11:23.646Z,716.00
2023-04-20T10:12:23.637Z,718.00
2023-04-20T10:13:23.635Z,720.00
2023-04-20T10:14:23.773Z,721.00
2023-04-20T10:15:23.607Z,723.00
2023-04-20T10:16:23.638Z,727.00
2023-04-20T10:17:23.802Z,729.00
2023-04-20T10:18:24.068Z,728.00
2023-04-20T10:19:23.568Z,727.00
2023-04-20T10:20:23.706Z,727.00
2023-04-20T10:21:23.536Z,726.00
2023-04-20T10:22:23.537Z,728.00
2023-04-20T10:23:23.547Z,729.00
2023-04-20T10:24:23.669Z,730.00
2023-04-20T10:25:23.560Z,730.00
2023-04-20T10:26:23.744Z,736.00
2023-04-20T10:27:23.469Z,740.00
2023-04-20T10:28:23.470Z,741.00
2023-04-20T10:29:23.459Z,743.00
2023-04-20T10:30:23.454Z,744.00
2023-04-20T10:31:23.483Z,741.00
2023-04-20T10:32:30.294Z,739.00
2023-04-20T10:33:23.412Z,734.00
2023-04-20T10:34:23.424Z,732.00
2023-04-20T10:35:23.402Z,729.00
2023-04-20T10:36:23.404Z,726.00
2023-04-20T10:37:23.388Z,726.00
2023-04-20T10:38:23.411Z,724.00
2023-04-20T10:39:23.560Z,721.00
2023-04-20T10:40:23.339Z,722.00
2023-04-20T10:41:23.347Z,725.00
2023-04-20T10:42:23.314Z,726.00
2023-04-20T10:43:23.308Z,726.00
2023-04-20T10:44:23.451Z,722.00
2023-04-20T10:45:23.287Z,725.00
2023-04-20T10:46:23.393Z,725.00
2023-04-20T10:47:23.297Z,723.00
2023-04-20T10:48:23.260Z,723.00
2023-04-20T10:49:23.246Z,725.00
2023-04-20T10:50:23.389Z,726.00
2023-04-20T10:51:23.238Z,729.00
2023-04-20T10:52:23.219Z,731.00
2023-04-20T10:53:23.225Z,731.00
2023-04-20T10:54:23.200Z,731.00
2023-04-20T10:55:23.173Z,732.00
2023-04-20T10:56:23.300Z,730.00
2023-04-20T10:57:23.176Z,729.00
2023-04-20T10:58:23.157Z,728.00
2023-04-20T10:59:23.139Z,729.00
2023-04-20T11:00:23.137Z,730.00
2023-04-20T11:01:23.175Z,731.00
2023-04-20T11:02:23.511Z,733.00
2023-04-20T11:03:23.156Z,734.00
2023-04-20T11:04:23.129Z,732.00
2023-04-20T11:05:23.145Z,730.00
2023-04-20T11:06:23.057Z,729.00
2023-04-20T11:07:23.058Z,727.00
2023-04-20T11:08:23.196Z,726.00
2023-04-20T11:09:23.034Z,726.00
2023-04-20T11:10:23.058Z,730.00
2023-04-20T11:11:23.012Z,727.00
2023-04-20T11:12:23.015Z,729.00
2023-04-20T11:13:23.035Z,730.00
2023-04-20T11:14:23.138Z,731.00
2023-04-20T11:15:22.970Z,731.00
2023-04-20T11:16:24.801Z,731.00
2023-04-20T11:17:23.079Z,730.00
2023-04-20T11:18:23.095Z,729.00
2023-04-20T11:19:22.931Z,725.00
2023-04-20T11:20:23.069Z,726.00
2023-04-20T11:21:22.905Z,731.00
2023-04-20T11:22:22.896Z,731.00
2023-04-20T11:23:22.891Z,731.00
2023-04-20T11:24:22.873Z,733.00
2023-04-20T11:25:22.888Z,733.00
2023-04-20T11:26:22.886Z,734.00
2023-04-20T11:27:22.851Z,734.00
2023-04-20T11:28:22.853Z,730.00
2023-04-20T11:29:22.845Z,729.00
2023-04-20T11:30:22.822Z,728.00
2023-04-20T11:31:22.941Z,728.00
2023-04-20T11:32:29.932Z,731.00
2023-04-20T11:33:22.863Z,733.00
2023-04-20T11:34:22.758Z,734.00
2023-04-20T11:35:22.764Z,734.00
2023-04-20T11:36:22.746Z,732.00
2023-04-20T11:37:22.737Z,732.00
2023-04-20T11:38:22.744Z,731.00
2023-04-20T11:39:22.712Z,729.00
2023-04-20T11:40:22.701Z,728.00
2023-04-20T11:41:22.696Z,729.00
2023-04-20T11:42:22.691Z,732.00
2023-04-20T11:43:22.676Z,736.00
2023-04-20T11:44:22.697Z,739.00
2023-04-20T11:45:22.680Z,743.00
2023-04-20T11:46:22.679Z,741.00
2023-04-20T11:47:22.664Z,740.00
2023-04-20T11:48:22.628Z,738.00
2023-04-20T11:49:22.612Z,736.00
2023-04-20T11:50:22.741Z,737.00
2023-04-20T11:51:22.611Z,738.00
2023-04-20T11:52:22.574Z,736.00
2023-04-20T11:53:22.570Z,733.00
2023-04-20T11:54:22.555Z,732.00
2023-04-20T11:55:22.553Z,733.00
2023-04-20T11:56:22.669Z,735.00
2023-04-20T11:57:22.553Z,736.00
2023-04-20T11:58:22.510Z,735.00
2023-04-20T11:59:22.507Z,732.00
2023-04-20T12:00:22.489Z,729.00
2023-04-20T12:01:22.479Z,730.00
2023-04-20T12:02:22.569Z,732.00
2023-04-20T12:03:22.699Z,734.00
2023-04-20T12:04:22.657Z,739.00
2023-04-20T12:05:22.533Z,738.00
2023-04-20T12:06:22.425Z,738.00
2023-04-20T12:07:22.425Z,735.00
2023-04-20T12:08:22.442Z,736.00
2023-04-20T12:09:22.407Z,735.00
2023-04-20T12:10:22.392Z,735.00
2023-04-20T12:11:22.400Z,734.00
2023-04-20T12:12:22.376Z,732.00
2023-04-20T12:13:22.368Z,732.00
2023-04-20T12:14:22.382Z,731.00
2023-04-20T12:15:22.329Z,732.00
2023-04-20T12:16:22.342Z,734.00
2023-04-20T12:17:22.356Z,735.00
2023-04-20T12:18:22.298Z,736.00
2023-04-20T12:19:22.293Z,736.00
2023-04-20T12:20:22.449Z,735.00
2023-04-20T12:21:22.273Z,737.00
2023-04-20T12:22:22.252Z,740.00
2023-04-20T12:23:22.253Z,740.00
2023-04-20T12:24:22.231Z,740.00
2023-04-20T12:25:22.232Z,739.00
2023-04-20T12:26:27.028Z,742.00
2023-04-20T12:27:22.216Z,744.00
2023-04-20T12:28:22.193Z,745.00
2023-04-20T12:29:22.199Z,746.00
2023-04-20T12:30:22.257Z,748.00